sensor_id;sensor_type;location;lat;lon;timestamp;P1;durP1;ratioP1;P2;durP2;ratioP2
35518;SDS011;21627;48.216;16.482;2023-05-08T00:01:30;14.07;;;10.88;;
35518;SDS011;21627;48.216;16.482;2023-05-08T00:03:57;15.80;;;11.63;;
35518;SDS011;21627;48.216;16.482;2023-05-08T00:06:25;13.63;;;10.23;;
35518;SDS011;21627;48.216;16.482;2023-05-08T00:08:54;15.30;;;11.02;;
35518;SDS011;21627;48.216;16.482;2023-05-08T00:11:22;14.23;;;9.82;;
35518;SDS011;21627;48.216;16.482;2023-05-08T00:13:49;14.02;;;9.70;;
35518;SDS011;21627;48.216;16.482;2023-05-08T00:16:16;15.68;;;10.35;;
35518;SDS011;21627;48.216;16.482;2023-05-08T00:18:43;14.68;;;10.50;;
35518;SDS011;21627;48.216;16.482;2023-05-08T00:21:10;13.85;;;9.48;;
35518;SDS011;21627;48.216;16.482;2023-05-08T00:23:37;12.90;;;9.77;;
35518;SDS011;21627;48.216;16.482;2023-05-08T00:26:04;15.18;;;9.93;;
35518;SDS011;21627;48.216;16.482;2023-05-08T00:28:32;12.32;;;9.45;;
35518;SDS011;21627;48.216;16.482;2023-05-08T00:30:59;13.50;;;9.70;;
35518;SDS011;21627;48.216;16.482;2023-05-08T00:33:27;12.40;;;9.52;;
35518;SDS011;21627;48.216;16.482;2023-05-08T00:36:00;13.25;;;9.52;;
35518;SDS011;21627;48.216;16.482;2023-05-08T00:38:29;13.60;;;9.38;;
35518;SDS011;21627;48.216;16.482;2023-05-08T00:40:58;11.57;;;9.35;;
35518;SDS011;21627;48.216;16.482;2023-05-08T00:43:29;12.13;;;9.45;;
35518;SDS011;21627;48.216;16.482;2023-05-08T00:46:00;12.15;;;8.77;;
35518;SDS011;21627;48.216;16.482;2023-05-08T00:48:28;12.88;;;9.35;;
35518;SDS011;21627;48.216;16.482;2023-05-08T00:50:59;12.80;;;8.77;;
35518;SDS011;21627;48.216;16.482;2023-05-08T00:53:30;15.30;;;8.85;;
35518;SDS011;21627;48.216;16.482;2023-05-08T00:56:02;15.07;;;8.88;;
35518;SDS011;21627;48.216;16.482;2023-05-08T00:58:32;14.70;;;9.98;;
35518;SDS011;21627;48.216;16.482;2023-05-08T01:00:59;11.75;;;8.82;;
35518;SDS011;21627;48.216;16.482;2023-05-08T01:03:26;14.15;;;9.88;;
35518;SDS011;21627;48.216;16.482;2023-05-08T01:05:54;13.70;;;9.52;;
35518;SDS011;21627;48.216;16.482;2023-05-08T01:08:21;15.15;;;9.65;;
35518;SDS011;21627;48.216;16.482;2023-05-08T01:19:41;12.20;;;9.43;;
35518;SDS011;21627;48.216;16.482;2023-05-08T01:31:50;14.25;;;10.82;;
35518;SDS011;21627;48.216;16.482;2023-05-08T01:38:07;16.02;;;11.13;;
35518;SDS011;21627;48.216;16.482;2023-05-08T01:43:29;17.35;;;11.35;;
35518;SDS011;21627;48.216;16.482;2023-05-08T01:46:18;15.10;;;11.50;;
35518;SDS011;21627;48.216;16.482;2023-05-08T01:48:55;13.98;;;10.65;;
35518;SDS011;21627;48.216;16.482;2023-05-08T01:51:26;14.77;;;10.75;;
35518;SDS011;21627;48.216;16.482;2023-05-08T01:53:59;13.40;;;10.73;;
35518;SDS011;21627;48.216;16.482;2023-05-08T01:56:35;14.93;;;11.45;;
35518;SDS011;21627;48.216;16.482;2023-05-08T01:59:05;15.02;;;10.70;;
35518;SDS011;21627;48.216;16.482;2023-05-08T02:01:35;15.98;;;10.88;;
35518;SDS011;21627;48.216;16.482;2023-05-08T02:04:04;20.50;;;12.40;;
35518;SDS011;21627;48.216;16.482;2023-05-08T02:06:32;17.55;;;11.90;;
35518;SDS011;21627;48.216;16.482;2023-05-08T02:09:02;18.90;;;11.82;;
35518;SDS011;21627;48.216;16.482;2023-05-08T02:11:32;18.80;;;11.95;;
35518;SDS011;21627;48.216;16.482;2023-05-08T02:14:02;15.82;;;11.65;;
35518;SDS011;21627;48.216;16.482;2023-05-08T02:16:31;16.67;;;12.63;;
35518;SDS011;21627;48.216;16.482;2023-05-08T02:19:00;18.20;;;11.20;;
35518;SDS011;21627;48.216;16.482;2023-05-08T02:21:28;17.30;;;11.82;;
35518;SDS011;21627;48.216;16.482;2023-05-08T02:23:57;14.60;;;10.73;;
35518;SDS011;21627;48.216;16.482;2023-05-08T02:26:25;16.23;;;11.60;;
35518;SDS011;21627;48.216;16.482;2023-05-08T02:28:54;17.52;;;11.40;;
35518;SDS011;21627;48.216;16.482;2023-05-08T02:31:22;13.00;;;9.55;;
35518;SDS011;21627;48.216;16.482;2023-05-08T02:33:50;14.55;;;10.60;;
35518;SDS011;21627;48.216;16.482;2023-05-08T02:36:19;19.05;;;11.63;;
35518;SDS011;21627;48.216;16.482;2023-05-08T02:38:49;14.90;;;10.30;;
35518;SDS011;21627;48.216;16.482;2023-05-08T02:41:20;18.35;;;11.50;;
35518;SDS011;21627;48.216;16.482;2023-05-08T02:43:48;15.27;;;11.25;;
35518;SDS011;21627;48.216;16.482;2023-05-08T02:46:18;14.07;;;10.23;;
35518;SDS011;21627;48.216;16.482;2023-05-08T02:54:23;16.88;;;11.43;;
35518;SDS011;21627;48.216;16.482;2023-05-08T03:01:15;14.43;;;9.43;;
35518;SDS011;21627;48.216;16.482;2023-05-08T03:03:55;14.68;;;10.35;;
35518;SDS011;21627;48.216;16.482;2023-05-08T03:06:36;14.82;;;9.77;;
35518;SDS011;21627;48.216;16.482;2023-05-08T03:09:16;13.63;;;10.10;;
35518;SDS011;21627;48.216;16.482;2023-05-08T03:11:47;14.40;;;10.90;;
35518;SDS011;21627;48.216;16.482;2023-05-08T03:14:19;16.45;;;10.10;;
35518;SDS011;21627;48.216;16.482;2023-05-08T03:16:51;15.35;;;10.75;;
35518;SDS011;21627;48.216;16.482;2023-05-08T03:19:29;15.25;;;11.40;;
35518;SDS011;21627;48.216;16.482;2023-05-08T03:22:03;14.55;;;10.30;;
35518;SDS011;21627;48.216;16.482;2023-05-08T03:24:33;15.27;;;10.27;;
35518;SDS011;21627;48.216;16.482;2023-05-08T03:27:02;13.95;;;10.65;;
35518;SDS011;21627;48.216;16.482;2023-05-08T03:29:31;13.73;;;10.18;;
35518;SDS011;21627;48.216;16.482;2023-05-08T03:31:59;14.68;;;10.65;;
35518;SDS011;21627;48.216;16.482;2023-05-08T03:34:28;14.85;;;10.15;;
35518;SDS011;21627;48.216;16.482;2023-05-08T03:36:56;14.55;;;10.57;;
35518;SDS011;21627;48.216;16.482;2023-05-08T03:39:24;17.17;;;10.23;;
35518;SDS011;21627;48.216;16.482;2023-05-08T03:41:52;15.15;;;10.15;;
35518;SDS011;21627;48.216;16.482;2023-05-08T03:44:22;11.90;;;9.40;;
35518;SDS011;21627;48.216;16.482;2023-05-08T03:46:51;15.73;;;10.15;;
35518;SDS011;21627;48.216;16.482;2023-05-08T03:49:24;15.65;;;10.20;;
35518;SDS011;21627;48.216;16.482;2023-05-08T03:51:52;14.73;;;8.85;;
35518;SDS011;21627;48.216;16.482;2023-05-08T03:54:21;14.77;;;9.93;;
35518;SDS011;21627;48.216;16.482;2023-05-08T03:56:51;13.48;;;9.60;;
35518;SDS011;21627;48.216;16.482;2023-05-08T04:00:20;19.23;;;9.52;;
35518;SDS011;21627;48.216;16.482;2023-05-08T04:05:18;13.25;;;9.10;;
35518;SDS011;21627;48.216;16.482;2023-05-08T04:08:33;12.18;;;9.52;;
35518;SDS011;21627;48.216;16.482;2023-05-08T04:14:10;16.48;;;11.18;;
35518;SDS011;21627;48.216;16.482;2023-05-08T04:16:45;14.73;;;10.35;;
35518;SDS011;21627;48.216;16.482;2023-05-08T04:19:18;13.15;;;9.52;;
35518;SDS011;21627;48.216;16.482;2023-05-08T04:21:53;16.02;;;11.20;;
35518;SDS011;21627;48.216;16.482;2023-05-08T04:24:27;14.50;;;10.35;;
35518;SDS011;21627;48.216;16.482;2023-05-08T04:26:56;14.52;;;10.85;;
35518;SDS011;21627;48.216;16.482;2023-05-08T04:29:23;14.15;;;10.15;;
35518;SDS011;21627;48.216;16.482;2023-05-08T04:31:51;19.60;;;10.57;;
35518;SDS011;21627;48.216;16.482;2023-05-08T04:34:19;21.33;;;10.93;;
35518;SDS011;21627;48.216;16.482;2023-05-08T04:36:48;11.65;;;9.73;;
35518;SDS011;21627;48.216;16.482;2023-05-08T04:39:15;15.43;;;10.45;;
35518;SDS011;21627;48.216;16.482;2023-05-08T04:41:42;14.15;;;10.20;;
35518;SDS011;21627;48.216;16.482;2023-05-08T04:44:09;14.70;;;10.05;;
35518;SDS011;21627;48.216;16.482;2023-05-08T04:46:36;16.70;;;11.30;;
35518;SDS011;21627;48.216;16.482;2023-05-08T04:49:03;17.58;;;9.65;;
35518;SDS011;21627;48.216;16.482;2023-05-08T04:51:30;14.68;;;10.85;;
35518;SDS011;21627;48.216;16.482;2023-05-08T04:53:58;16.75;;;11.45;;
35518;SDS011;21627;48.216;16.482;2023-05-08T04:56:25;15.50;;;9.57;;
35518;SDS011;21627;48.216;16.482;2023-05-08T04:58:52;19.35;;;10.32;;
35518;SDS011;21627;48.216;16.482;2023-05-08T05:01:19;12.30;;;9.43;;
35518;SDS011;21627;48.216;16.482;2023-05-08T05:03:46;14.02;;;10.00;;
35518;SDS011;21627;48.216;16.482;2023-05-08T05:06:13;12.77;;;9.52;;
35518;SDS011;21627;48.216;16.482;2023-05-08T05:08:40;11.38;;;8.90;;
35518;SDS011;21627;48.216;16.482;2023-05-08T05:11:07;14.60;;;10.02;;
35518;SDS011;21627;48.216;16.482;2023-05-08T05:13:37;14.10;;;9.45;;
35518;SDS011;21627;48.216;16.482;2023-05-08T05:16:04;15.35;;;10.00;;
35518;SDS011;21627;48.216;16.482;2023-05-08T05:18:32;16.50;;;8.73;;
35518;SDS011;21627;48.216;16.482;2023-05-08T05:20:59;17.00;;;9.90;;
35518;SDS011;21627;48.216;16.482;2023-05-08T05:23:26;14.85;;;9.60;;
35518;SDS011;21627;48.216;16.482;2023-05-08T05:25:53;17.15;;;9.85;;
35518;SDS011;21627;48.216;16.482;2023-05-08T05:28:20;15.52;;;9.32;;
35518;SDS011;21627;48.216;16.482;2023-05-08T05:30:47;14.52;;;9.65;;
35518;SDS011;21627;48.216;16.482;2023-05-08T05:33:17;13.27;;;9.35;;
35518;SDS011;21627;48.216;16.482;2023-05-08T05:35:44;13.32;;;8.77;;
35518;SDS011;21627;48.216;16.482;2023-05-08T05:38:14;13.00;;;8.88;;
35518;SDS011;21627;48.216;16.482;2023-05-08T05:40:41;13.77;;;9.27;;
35518;SDS011;21627;48.216;16.482;2023-05-08T05:43:10;12.32;;;8.77;;
35518;SDS011;21627;48.216;16.482;2023-05-08T05:45:37;11.15;;;8.32;;
35518;SDS011;21627;48.216;16.482;2023-05-08T05:48:05;12.73;;;7.85;;
35518;SDS011;21627;48.216;16.482;2023-05-08T05:50:32;10.23;;;7.05;;
35518;SDS011;21627;48.216;16.482;2023-05-08T05:53:00;9.45;;;7.22;;
35518;SDS011;21627;48.216;16.482;2023-05-08T05:55:27;10.55;;;7.30;;
35518;SDS011;21627;48.216;16.482;2023-05-08T05:57:54;9.32;;;7.10;;
35518;SDS011;21627;48.216;16.482;2023-05-08T06:00:21;12.93;;;7.00;;
35518;SDS011;21627;48.216;16.482;2023-05-08T06:02:48;13.95;;;7.18;;
35518;SDS011;21627;48.216;16.482;2023-05-08T06:05:15;13.07;;;7.50;;
35518;SDS011;21627;48.216;16.482;2023-05-08T06:07:44;12.20;;;8.07;;
35518;SDS011;21627;48.216;16.482;2023-05-08T06:10:12;10.52;;;7.80;;
35518;SDS011;21627;48.216;16.482;2023-05-08T06:12:39;9.90;;;7.50;;
35518;SDS011;21627;48.216;16.482;2023-05-08T06:15:06;10.90;;;6.75;;
35518;SDS011;21627;48.216;16.482;2023-05-08T06:17:35;9.55;;;7.05;;
35518;SDS011;21627;48.216;16.482;2023-05-08T06:20:02;9.98;;;6.43;;
35518;SDS011;21627;48.216;16.482;2023-05-08T06:22:30;16.38;;;7.10;;
35518;SDS011;21627;48.216;16.482;2023-05-08T06:24:57;12.95;;;6.25;;
35518;SDS011;21627;48.216;16.482;2023-05-08T06:27:24;9.55;;;6.47;;
35518;SDS011;21627;48.216;16.482;2023-05-08T06:29:51;9.55;;;7.15;;
35518;SDS011;21627;48.216;16.482;2023-05-08T06:32:19;10.60;;;6.78;;
35518;SDS011;21627;48.216;16.482;2023-05-08T06:34:46;8.82;;;6.82;;
35518;SDS011;21627;48.216;16.482;2023-05-08T06:37:13;12.15;;;6.30;;
35518;SDS011;21627;48.216;16.482;2023-05-08T06:39:41;9.15;;;6.97;;
35518;SDS011;21627;48.216;16.482;2023-05-08T06:42:08;9.77;;;6.60;;
35518;SDS011;21627;48.216;16.482;2023-05-08T06:44:35;7.22;;;5.90;;
35518;SDS011;21627;48.216;16.482;2023-05-08T06:47:02;7.85;;;6.03;;
35518;SDS011;21627;48.216;16.482;2023-05-08T06:49:29;9.13;;;6.85;;
35518;SDS011;21627;48.216;16.482;2023-05-08T06:51:56;9.50;;;6.43;;
35518;SDS011;21627;48.216;16.482;2023-05-08T06:54:23;7.70;;;6.13;;
35518;SDS011;21627;48.216;16.482;2023-05-08T06:56:51;9.43;;;5.85;;
35518;SDS011;21627;48.216;16.482;2023-05-08T06:59:19;13.65;;;6.65;;
35518;SDS011;21627;48.216;16.482;2023-05-08T07:01:49;16.15;;;6.32;;
35518;SDS011;21627;48.216;16.482;2023-05-08T07:04:16;10.55;;;6.57;;
35518;SDS011;21627;48.216;16.482;2023-05-08T07:06:43;8.63;;;6.00;;
35518;SDS011;21627;48.216;16.482;2023-05-08T07:09:10;13.27;;;6.18;;
35518;SDS011;21627;48.216;16.482;2023-05-08T07:11:38;34.00;;;7.72;;
35518;SDS011;21627;48.216;16.482;2023-05-08T07:14:05;10.18;;;5.95;;
35518;SDS011;21627;48.216;16.482;2023-05-08T07:16:32;7.35;;;5.57;;
35518;SDS011;21627;48.216;16.482;2023-05-08T07:19:00;7.72;;;5.18;;
35518;SDS011;21627;48.216;16.482;2023-05-08T07:21:27;8.23;;;5.68;;
35518;SDS011;21627;48.216;16.482;2023-05-08T07:23:55;7.53;;;5.57;;
35518;SDS011;21627;48.216;16.482;2023-05-08T07:26:22;6.65;;;5.03;;
35518;SDS011;21627;48.216;16.482;2023-05-08T07:28:49;12.10;;;5.32;;
35518;SDS011;21627;48.216;16.482;2023-05-08T07:31:16;8.70;;;5.40;;
35518;SDS011;21627;48.216;16.482;2023-05-08T07:33:43;9.50;;;5.90;;
35518;SDS011;21627;48.216;16.482;2023-05-08T07:36:12;9.93;;;5.50;;
35518;SDS011;21627;48.216;16.482;2023-05-08T07:38:39;6.15;;;4.70;;
35518;SDS011;21627;48.216;16.482;2023-05-08T07:41:06;8.25;;;4.90;;
35518;SDS011;21627;48.216;16.482;2023-05-08T07:43:33;6.15;;;4.95;;
35518;SDS011;21627;48.216;16.482;2023-05-08T07:46:00;6.30;;;4.97;;
35518;SDS011;21627;48.216;16.482;2023-05-08T07:48:28;19.13;;;5.47;;
35518;SDS011;21627;48.216;16.482;2023-05-08T07:50:55;26.98;;;6.28;;
35518;SDS011;21627;48.216;16.482;2023-05-08T07:53:23;11.00;;;4.65;;
35518;SDS011;21627;48.216;16.482;2023-05-08T07:55:50;7.00;;;4.90;;
35518;SDS011;21627;48.216;16.482;2023-05-08T07:58:17;15.20;;;6.07;;
35518;SDS011;21627;48.216;16.482;2023-05-08T08:00:44;9.82;;;4.82;;
35518;SDS011;21627;48.216;16.482;2023-05-08T08:03:11;8.82;;;5.82;;
35518;SDS011;21627;48.216;16.482;2023-05-08T08:05:38;7.03;;;4.63;;
35518;SDS011;21627;48.216;16.482;2023-05-08T08:08:05;7.22;;;4.93;;
35518;SDS011;21627;48.216;16.482;2023-05-08T08:10:32;6.28;;;5.00;;
35518;SDS011;21627;48.216;16.482;2023-05-08T08:13:00;8.02;;;5.80;;
35518;SDS011;21627;48.216;16.482;2023-05-08T08:15:27;7.20;;;5.45;;
35518;SDS011;21627;48.216;16.482;2023-05-08T08:17:54;52.85;;;7.18;;
35518;SDS011;21627;48.216;16.482;2023-05-08T08:20:21;7.32;;;5.05;;
35518;SDS011;21627;48.216;16.482;2023-05-08T08:22:49;7.57;;;5.07;;
35518;SDS011;21627;48.216;16.482;2023-05-08T08:25:16;29.17;;;5.95;;
35518;SDS011;21627;48.216;16.482;2023-05-08T08:27:43;32.83;;;6.88;;
35518;SDS011;21627;48.216;16.482;2023-05-08T08:30:10;6.03;;;4.40;;
35518;SDS011;21627;48.216;16.482;2023-05-08T08:32:43;7.57;;;4.55;;
35518;SDS011;21627;48.216;16.482;2023-05-08T08:35:10;9.00;;;4.43;;
35518;SDS011;21627;48.216;16.482;2023-05-08T08:37:38;7.18;;;4.38;;
35518;SDS011;21627;48.216;16.482;2023-05-08T08:40:05;5.85;;;4.30;;
35518;SDS011;21627;48.216;16.482;2023-05-08T08:42:33;16.95;;;4.70;;
35518;SDS011;21627;48.216;16.482;2023-05-08T08:45:01;6.85;;;4.35;;
35518;SDS011;21627;48.216;16.482;2023-05-08T08:47:32;11.27;;;4.38;;
35518;SDS011;21627;48.216;16.482;2023-05-08T08:50:07;22.50;;;5.80;;
35518;SDS011;21627;48.216;16.482;2023-05-08T08:52:42;9.23;;;4.32;;
35518;SDS011;21627;48.216;16.482;2023-05-08T08:55:21;6.40;;;4.00;;
35518;SDS011;21627;48.216;16.482;2023-05-08T09:00:29;8.95;;;4.70;;
35518;SDS011;21627;48.216;16.482;2023-05-08T09:02:57;6.60;;;4.50;;
35518;SDS011;21627;48.216;16.482;2023-05-08T09:05:25;5.97;;;3.97;;
35518;SDS011;21627;48.216;16.482;2023-05-08T09:07:53;10.90;;;4.47;;
35518;SDS011;21627;48.216;16.482;2023-05-08T09:10:22;21.13;;;5.68;;
35518;SDS011;21627;48.216;16.482;2023-05-08T09:12:50;6.22;;;4.65;;
35518;SDS011;21627;48.216;16.482;2023-05-08T09:15:17;5.60;;;4.32;;
35518;SDS011;21627;48.216;16.482;2023-05-08T09:17:45;7.20;;;4.13;;
35518;SDS011;21627;48.216;16.482;2023-05-08T09:20:13;6.68;;;4.22;;
35518;SDS011;21627;48.216;16.482;2023-05-08T09:22:41;35.58;;;6.35;;
35518;SDS011;21627;48.216;16.482;2023-05-08T09:25:09;6.72;;;4.13;;
35518;SDS011;21627;48.216;16.482;2023-05-08T09:27:37;6.55;;;4.32;;
35518;SDS011;21627;48.216;16.482;2023-05-08T09:30:05;14.50;;;4.43;;
35518;SDS011;21627;48.216;16.482;2023-05-08T09:32:36;6.75;;;4.10;;
35518;SDS011;21627;48.216;16.482;2023-05-08T09:35:09;7.25;;;5.00;;
35518;SDS011;21627;48.216;16.482;2023-05-08T09:37:39;5.32;;;4.45;;
35518;SDS011;21627;48.216;16.482;2023-05-08T09:40:12;7.78;;;4.50;;
35518;SDS011;21627;48.216;16.482;2023-05-08T09:42:47;5.88;;;4.15;;
35518;SDS011;21627;48.216;16.482;2023-05-08T09:45:25;7.43;;;4.32;;
35518;SDS011;21627;48.216;16.482;2023-05-08T09:47:55;7.03;;;3.92;;
35518;SDS011;21627;48.216;16.482;2023-05-08T09:50:23;29.38;;;5.35;;
35518;SDS011;21627;48.216;16.482;2023-05-08T09:52:51;7.97;;;4.18;;
35518;SDS011;21627;48.216;16.482;2023-05-08T09:55:18;5.60;;;4.28;;
35518;SDS011;21627;48.216;16.482;2023-05-08T09:57:55;5.43;;;3.90;;
35518;SDS011;21627;48.216;16.482;2023-05-08T10:00:25;4.88;;;3.65;;
35518;SDS011;21627;48.216;16.482;2023-05-08T10:02:57;6.75;;;3.70;;
35518;SDS011;21627;48.216;16.482;2023-05-08T10:05:29;4.43;;;3.83;;
35518;SDS011;21627;48.216;16.482;2023-05-08T10:08:21;70.10;;;7.40;;
35518;SDS011;21627;48.216;16.482;2023-05-08T10:10:49;10.38;;;3.65;;
35518;SDS011;21627;48.216;16.482;2023-05-08T10:13:16;6.43;;;3.80;;
35518;SDS011;21627;48.216;16.482;2023-05-08T10:15:43;8.18;;;4.38;;
35518;SDS011;21627;48.216;16.482;2023-05-08T10:18:11;6.25;;;3.92;;
35518;SDS011;21627;48.216;16.482;2023-05-08T10:20:42;4.90;;;3.67;;
35518;SDS011;21627;48.216;16.482;2023-05-08T10:23:15;13.52;;;4.32;;
35518;SDS011;21627;48.216;16.482;2023-05-08T10:25:44;4.57;;;3.65;;
35518;SDS011;21627;48.216;16.482;2023-05-08T10:28:23;5.30;;;3.88;;
35518;SDS011;21627;48.216;16.482;2023-05-08T10:31:10;11.40;;;3.63;;
35518;SDS011;21627;48.216;16.482;2023-05-08T10:33:43;3.97;;;3.40;;
35518;SDS011;21627;48.216;16.482;2023-05-08T10:36:14;4.32;;;3.17;;
35518;SDS011;21627;48.216;16.482;2023-05-08T10:38:42;3.55;;;3.05;;
35518;SDS011;21627;48.216;16.482;2023-05-08T10:41:09;6.15;;;3.80;;
35518;SDS011;21627;48.216;16.482;2023-05-08T10:43:39;4.88;;;3.53;;
35518;SDS011;21627;48.216;16.482;2023-05-08T10:49:11;4.03;;;3.28;;
35518;SDS011;21627;48.216;16.482;2023-05-08T10:57:24;8.23;;;3.88;;
35518;SDS011;21627;48.216;16.482;2023-05-08T10:59:51;6.10;;;3.90;;
35518;SDS011;21627;48.216;16.482;2023-05-08T11:02:24;9.00;;;3.20;;
35518;SDS011;21627;48.216;16.482;2023-05-08T11:05:15;5.15;;;3.25;;
35518;SDS011;21627;48.216;16.482;2023-05-08T11:08:18;6.13;;;3.75;;
35518;SDS011;21627;48.216;16.482;2023-05-08T11:10:50;4.68;;;3.25;;
35518;SDS011;21627;48.216;16.482;2023-05-08T11:13:27;5.97;;;3.60;;
35518;SDS011;21627;48.216;16.482;2023-05-08T11:15:58;8.93;;;3.35;;
35518;SDS011;21627;48.216;16.482;2023-05-08T11:18:26;9.18;;;3.75;;
35518;SDS011;21627;48.216;16.482;2023-05-08T11:21:14;6.60;;;3.17;;
35518;SDS011;21627;48.216;16.482;2023-05-08T11:23:50;68.68;;;7.55;;
35518;SDS011;21627;48.216;16.482;2023-05-08T11:26:37;51.80;;;6.97;;
35518;SDS011;21627;48.216;16.482;2023-05-08T11:29:17;3.92;;;3.20;;
35518;SDS011;21627;48.216;16.482;2023-05-08T11:31:50;26.35;;;4.97;;
35518;SDS011;21627;48.216;16.482;2023-05-08T11:37:08;3.30;;;2.60;;
35518;SDS011;21627;48.216;16.482;2023-05-08T11:39:42;4.28;;;3.30;;
35518;SDS011;21627;48.216;16.482;2023-05-08T11:45:05;3.35;;;2.20;;
35518;SDS011;21627;48.216;16.482;2023-05-08T11:50:08;4.25;;;3.03;;
35518;SDS011;21627;48.216;16.482;2023-05-08T11:52:39;5.10;;;3.17;;
35518;SDS011;21627;48.216;16.482;2023-05-08T11:55:09;4.28;;;2.50;;
35518;SDS011;21627;48.216;16.482;2023-05-08T11:57:38;8.55;;;2.88;;
35518;SDS011;21627;48.216;16.482;2023-05-08T12:02:39;3.17;;;2.30;;
35518;SDS011;21627;48.216;16.482;2023-05-08T12:05:09;5.82;;;3.10;;
35518;SDS011;21627;48.216;16.482;2023-05-08T12:07:46;5.22;;;3.35;;
35518;SDS011;21627;48.216;16.482;2023-05-08T12:10:14;3.58;;;2.78;;
35518;SDS011;21627;48.216;16.482;2023-05-08T12:12:43;4.47;;;2.63;;
35518;SDS011;21627;48.216;16.482;2023-05-08T12:15:13;6.20;;;2.95;;
35518;SDS011;21627;48.216;16.482;2023-05-08T12:17:41;3.53;;;2.33;;
35518;SDS011;21627;48.216;16.482;2023-05-08T12:22:41;3.58;;;2.72;;
35518;SDS011;21627;48.216;16.482;2023-05-08T12:27:44;5.47;;;3.53;;
35518;SDS011;21627;48.216;16.482;2023-05-08T12:30:12;5.85;;;2.63;;
35518;SDS011;21627;48.216;16.482;2023-05-08T12:32:42;2.60;;;2.00;;
35518;SDS011;21627;48.216;16.482;2023-05-08T12:35:10;3.42;;;2.00;;
35518;SDS011;21627;48.216;16.482;2023-05-08T12:37:38;5.10;;;2.63;;
35518;SDS011;21627;48.216;16.482;2023-05-08T12:40:06;3.85;;;2.55;;
35518;SDS011;21627;48.216;16.482;2023-05-08T12:42:49;5.60;;;3.25;;
35518;SDS011;21627;48.216;16.482;2023-05-08T12:45:20;5.35;;;2.65;;
35518;SDS011;21627;48.216;16.482;2023-05-08T12:47:57;3.28;;;2.28;;
35518;SDS011;21627;48.216;16.482;2023-05-08T12:50:33;4.32;;;2.15;;
35518;SDS011;21627;48.216;16.482;2023-05-08T12:53:06;2.95;;;2.10;;
35518;SDS011;21627;48.216;16.482;2023-05-08T12:55:56;6.32;;;2.60;;
35518;SDS011;21627;48.216;16.482;2023-05-08T12:58:31;5.97;;;2.58;;
35518;SDS011;21627;48.216;16.482;2023-05-08T13:01:18;7.55;;;2.47;;
35518;SDS011;21627;48.216;16.482;2023-05-08T13:03:51;6.05;;;2.78;;
35518;SDS011;21627;48.216;16.482;2023-05-08T13:06:27;5.18;;;2.80;;
35518;SDS011;21627;48.216;16.482;2023-05-08T13:08:54;3.38;;;2.25;;
35518;SDS011;21627;48.216;16.482;2023-05-08T13:11:29;5.30;;;2.92;;
35518;SDS011;21627;48.216;16.482;2023-05-08T13:13:58;4.25;;;2.38;;
35518;SDS011;21627;48.216;16.482;2023-05-08T13:16:25;5.45;;;2.10;;
35518;SDS011;21627;48.216;16.482;2023-05-08T13:18:52;5.88;;;2.55;;
35518;SDS011;21627;48.216;16.482;2023-05-08T13:21:19;5.68;;;2.50;;
35518;SDS011;21627;48.216;16.482;2023-05-08T13:23:47;2.80;;;2.00;;
35518;SDS011;21627;48.216;16.482;2023-05-08T13:26:14;3.22;;;2.40;;
35518;SDS011;21627;48.216;16.482;2023-05-08T13:28:41;3.90;;;2.45;;
35518;SDS011;21627;48.216;16.482;2023-05-08T13:31:08;2.83;;;2.00;;
35518;SDS011;21627;48.216;16.482;2023-05-08T13:33:35;3.53;;;1.98;;
35518;SDS011;21627;48.216;16.482;2023-05-08T13:36:03;6.07;;;2.20;;
35518;SDS011;21627;48.216;16.482;2023-05-08T13:38:30;2.95;;;2.30;;
35518;SDS011;21627;48.216;16.482;2023-05-08T13:40:57;8.88;;;2.30;;
35518;SDS011;21627;48.216;16.482;2023-05-08T13:43:25;3.00;;;2.17;;
35518;SDS011;21627;48.216;16.482;2023-05-08T13:45:52;2.72;;;2.05;;
35518;SDS011;21627;48.216;16.482;2023-05-08T13:48:19;3.33;;;2.78;;
35518;SDS011;21627;48.216;16.482;2023-05-08T13:50:46;3.97;;;1.90;;
35518;SDS011;21627;48.216;16.482;2023-05-08T13:53:13;2.83;;;2.00;;
35518;SDS011;21627;48.216;16.482;2023-05-08T13:55:41;2.60;;;1.90;;
35518;SDS011;21627;48.216;16.482;2023-05-08T13:58:08;8.70;;;2.13;;
35518;SDS011;21627;48.216;16.482;2023-05-08T14:00:36;3.08;;;2.03;;
35518;SDS011;21627;48.216;16.482;2023-05-08T14:03:03;5.35;;;2.17;;
35518;SDS011;21627;48.216;16.482;2023-05-08T14:05:30;9.65;;;2.22;;
35518;SDS011;21627;48.216;16.482;2023-05-08T14:07:57;5.07;;;1.92;;
35518;SDS011;21627;48.216;16.482;2023-05-08T14:10:24;6.13;;;2.03;;
35518;SDS011;21627;48.216;16.482;2023-05-08T14:12:51;3.70;;;1.95;;
35518;SDS011;21627;48.216;16.482;2023-05-08T14:15:18;9.27;;;2.65;;
35518;SDS011;21627;48.216;16.482;2023-05-08T14:17:48;5.25;;;2.17;;
35518;SDS011;21627;48.216;16.482;2023-05-08T14:20:15;3.38;;;2.42;;
35518;SDS011;21627;48.216;16.482;2023-05-08T14:22:42;3.97;;;1.90;;
35518;SDS011;21627;48.216;16.482;2023-05-08T14:25:11;2.63;;;1.98;;
35518;SDS011;21627;48.216;16.482;2023-05-08T14:27:39;4.50;;;2.15;;
35518;SDS011;21627;48.216;16.482;2023-05-08T14:30:06;9.07;;;2.08;;
35518;SDS011;21627;48.216;16.482;2023-05-08T14:32:34;5.78;;;2.33;;
35518;SDS011;21627;48.216;16.482;2023-05-08T14:35:01;6.55;;;2.50;;
35518;SDS011;21627;48.216;16.482;2023-05-08T14:37:28;5.60;;;1.85;;
35518;SDS011;21627;48.216;16.482;2023-05-08T14:39:56;7.65;;;2.13;;
35518;SDS011;21627;48.216;16.482;2023-05-08T14:42:24;2.13;;;1.80;;
35518;SDS011;21627;48.216;16.482;2023-05-08T14:44:51;4.30;;;2.03;;
35518;SDS011;21627;48.216;16.482;2023-05-08T14:47:18;2.90;;;2.00;;
35518;SDS011;21627;48.216;16.482;2023-05-08T14:49:46;2.65;;;1.83;;
35518;SDS011;21627;48.216;16.482;2023-05-08T14:52:13;2.70;;;1.80;;
35518;SDS011;21627;48.216;16.482;2023-05-08T14:54:40;3.70;;;1.92;;
35518;SDS011;21627;48.216;16.482;2023-05-08T14:57:07;4.63;;;1.63;;
35518;SDS011;21627;48.216;16.482;2023-05-08T14:59:34;4.10;;;2.10;;
35518;SDS011;21627;48.216;16.482;2023-05-08T15:02:01;4.40;;;1.77;;
35518;SDS011;21627;48.216;16.482;2023-05-08T15:04:28;4.35;;;2.13;;
35518;SDS011;21627;48.216;16.482;2023-05-08T15:06:56;2.58;;;1.67;;
35518;SDS011;21627;48.216;16.482;2023-05-08T15:09:23;8.60;;;2.45;;
35518;SDS011;21627;48.216;16.482;2023-05-08T15:11:50;2.67;;;1.60;;
35518;SDS011;21627;48.216;16.482;2023-05-08T15:14:17;1.63;;;1.38;;
35518;SDS011;21627;48.216;16.482;2023-05-08T15:16:44;4.50;;;1.88;;
35518;SDS011;21627;48.216;16.482;2023-05-08T15:19:11;5.32;;;1.60;;
35518;SDS011;21627;48.216;16.482;2023-05-08T15:21:38;3.83;;;1.77;;
35518;SDS011;21627;48.216;16.482;2023-05-08T15:24:06;7.03;;;1.60;;
35518;SDS011;21627;48.216;16.482;2023-05-08T15:26:33;3.85;;;1.77;;
35518;SDS011;21627;48.216;16.482;2023-05-08T15:29:00;5.40;;;2.38;;
35518;SDS011;21627;48.216;16.482;2023-05-08T15:31:27;4.93;;;1.73;;
35518;SDS011;21627;48.216;16.482;2023-05-08T15:33:55;3.08;;;1.90;;
35518;SDS011;21627;48.216;16.482;2023-05-08T15:36:22;4.25;;;1.90;;
35518;SDS011;21627;48.216;16.482;2023-05-08T15:38:50;3.10;;;1.80;;
35518;SDS011;21627;48.216;16.482;2023-05-08T15:41:19;3.47;;;1.73;;
35518;SDS011;21627;48.216;16.482;2023-05-08T15:43:49;3.95;;;1.85;;
35518;SDS011;21627;48.216;16.482;2023-05-08T15:46:16;5.65;;;1.77;;
35518;SDS011;21627;48.216;16.482;2023-05-08T15:48:44;7.13;;;1.92;;